• Join FlightAware (Why Join?)
  • Login
  • US Flag 
Rudolph Flight #1: Arrived! 
10:03AM EST


 

Airport Tracker/Info


-or-


 

Live Flight TrackerFlight Track Log ✈ AAR8736 ✈ 30-Jun-2013 ✈ RKJY / RSU - RKSS / GMP

Flight Track Log - Related Links

Times and Time Zones

All times are in EDT time to prevent confusion due to time zone crossing. See the AAR8736 flight status page for this flight to view local times or setup timezone preferences in your user account.

Time Position Orientation Groundspeed Altitude Reporting Facility
EDT Latitude Longitude Course Direction KTS MPH feet Rate Location/Type
03:50AM 35.5767 127.3975 346° North  Level Estimated
03:51AM 35.6503 127.3755 346° North  Level Estimated
03:52AM 35.7240 127.3535 346° North  Level Estimated
03:53AM 35.7977 127.3314 346° North  Level Estimated
03:54AM 35.8713 127.3093 346° North  Level Estimated
03:55AM 35.9450 127.2871 346° North  Level Estimated
03:56AM 36.0186 127.2649 346° North  Level Estimated
03:57AM 36.0922 127.2427 346° North  Level Estimated
03:58AM 36.1659 127.2204 346° North  Level Estimated
03:59AM 36.2395 127.1981 346° North  Level Estimated
04:00AM 36.3131 127.1757 346° North  Level Estimated
04:01AM 36.3868 127.1533 346° North  Level Estimated
04:02AM 36.4604 127.1308 346° North  Level Estimated
04:03AM 36.5340 127.1083 346° North  Level Estimated
04:04AM 36.6076 127.0858 346° North  Level Estimated
04:05AM 36.6812 127.0632 346° North  Level Estimated
04:06AM 36.7548 127.0406 346° North  Level Estimated
04:07AM 36.8284 127.0179 346° North  Level Estimated
04:07AM 36.9810 127.2980 346° North 308 354 12,200  Level FlightAware
04:08AM 36.9020 126.9952 346° North  Level Estimated
04:09AM 36.9756 126.9724 346° North  Level Estimated
04:10AM 37.0492 126.9496 346° North  Level Estimated
04:10AM 37.1760 127.3490 12° North 286 329 8,700  Level FlightAware
04:10AM 37.1910 127.3160 300° West 286 329 8,700  Level FlightAware
04:11AM 37.2120 127.2710 300° West 286 329 8,700 -1,560 Level FlightAware
04:11AM 37.2370 127.2250 304° West 244 281 7,100 -1,860 Descending FlightAware
04:12AM 37.2520 127.1950 302° West 222 255 7,100  Level FlightAware
04:12AM 37.2590 127.1800 300° West 210 242 7,100  Level FlightAware
04:12AM 37.2740 127.1500 302° West 200 230 7,100  Level FlightAware
04:13AM 37.2880 127.1250 305° West 204 235 7,100 -780 Level FlightAware
04:13AM 37.3080 127.1010 316° Northwest 207 238 6,400 -1,200 Descending FlightAware
04:14AM 37.3260 127.0790 316° Northwest 209 241 6,000 -900 Descending FlightAware
04:14AM 37.3460 127.0540 315° West 200 230 5,600 -840 Descending FlightAware
04:17AM 37.4676 126.9034 316° Northwest  Level Estimated
04:18AM 37.5216 126.8363 315° West  Level Estimated
04:19AM 37.5583 126.7906 315° West  Level Estimated
04:19AM 37.5160 126.8470 288° West 137 158 1,300  Level FlightAware
04:20AM 37.5583 126.7906 288° West  Level Estimated
04:22AM 37.5583 126.7906 313° West  Level Estimated
04:23AM 37.5583 126.7906 288° West  Level Estimated
04:24AM 37.5583 126.7906 288° West  Level Estimated
04:25AM 37.5583 126.7906 288° West  Level Estimated
04:26AM 37.5583 126.7906 288° West  Level Estimated
04:27AM 37.5583 126.7906 288° West  Level Estimated
04:28AM 37.5583 126.7906 288° West  Level Estimated
04:29AM 37.5583 126.7906 288° West  Level Estimated
04:30AM 37.5583 126.7906 288° West  Level Estimated